首页
METAR-TAF:

METAR-TAF

机场 :

Vance Air Force Base, 奧克拉荷馬州, 美国

纬度: 36-20N, 经度: 097-55W, 海拔: 398米

当前天气观测

该预报发布于39分钟前的05:55 UTC
风速10节,风向
温度 24°C
湿度 74%
气压 1012 hPa
能見度: 16.1公里
天空无云

METAR: KEND 130555Z AUTO 17010KT 10SM CLR 24/19 A2988 RMK AO2 SLP105 T02410189 10333 20240 403450162 50005 $

时间: 01:34 (06:34 UTC)

预报

该预报发布于4小时和34分钟前的02:00 UTC
预报有效从13日的 02点(UTC)到 14日的 08点(UTC)
风速12节,风向
能见度10公里或以上
天空无云
成为
从 13日的 14点(UTC)到 13日的 15点(UTC)
风速12节,风向南转西南,有时为22节阵风
能见度10公里或以上
天空无云
成为
从 13日的 17点(UTC)到 13日的 18点(UTC)
风速12节,风向,有时为18节阵风
能见度10公里或以上
天空无云
成为
从 14日的 02点(UTC)到 14日的 03点(UTC)
风速12节,风向
能见度10公里或以上
天空无云

TAF: KEND 130200Z 1302/1408 18012KT 9999 SKC QNH2985INS BECMG 1314/1315 20012G22KT 9999 SKC QNH2992INS BECMG 1317/1318 19012G18KT 9999 SKC QNH2979INS BECMG 1402/1403 18012KT 9999 SKC QNH2985INS TX38/1321Z TN21/1312Z

超过4000个机场的气象观测和天气预报(METAR&TAF报告)。

可查询的气象台以黄色和红色小点在地图上表示。

将鼠标移到小点上方,可查看气象台名称。

然后点击查看天气观测和预报。

如需切换地图:点击带黑十字的绿色按钮放大地图;点击带横线的绿色按钮缩小地图;或者点击绿色箭头查看邻近地区的地图。


METAR-TAF: